• Join FlightAware (Why Join?)
  • Login
  • US Flag 
06:21PM EDT


 

Airport Tracker/Info


-or-


 

Live Flight TrackerFlight Track Log ✈ N3801T ✈ 05-Aug-2013 ✈ KANE - KANE

Flight Track Log - Related Links

Times and Time Zones

All times are in EDT time to prevent confusion due to time zone crossing. See the N3801T flight status page for this flight to view local times or setup timezone preferences in your user account.

Time Position Orientation Groundspeed Altitude Reporting Facility
EDT Latitude Longitude Course Direction KTS MPH feet Rate Location/Type
10:34AM 45.1167 -93.2000 79° East 106 122 1,700  Level Minneapolis TRACON
10:36AM 45.1278 -93.1206 79° East 110 127 2,900 420 Climbing Minneapolis Center
10:37AM 45.1311 -93.0686 85° East 130 150 2,900  Level Minneapolis Center
10:38AM 45.1206 -93.0189 107° East 134 154 2,900  Level Minneapolis Center
10:39AM 45.1042 -92.9733 117° Southeast 130 150 3,000  Climbing Minneapolis Center
10:40AM 45.0889 -92.9247 114° Southeast 134 154 3,000  Level Minneapolis Center
10:41AM 45.1267 -92.9003 25° Northeast 141 162 3,000 -60 Level Minneapolis Center
10:42AM 45.1383 -92.9456 290° West 127 146 2,900 -120 Descending Minneapolis Center
10:43AM 45.1433 -92.9908 279° West 118 136 2,800 -60 Descending Minneapolis Center
10:44AM 45.1431 -93.0311 269° West 104 120 2,800 -120 Level Minneapolis Center
10:45AM 45.1411 -93.0706 266° West 102 117 2,600 -300 Descending Minneapolis Center
10:46AM 45.1439 -93.1108 276° West 103 119 2,300 -480 Descending Minneapolis Center
10:47AM 45.1433 -93.1506 269° West 88 101 1,700 -600 Descending Minneapolis Center
10:48AM 45.1456 -93.1886 275° West 97 112 1,100 -180 Descending Minneapolis Center
10:49AM 45.1458 -93.2361 270° West 100 115 1,400 300 Climbing Minneapolis Center
10:50AM 45.1711 -93.2478 342° North 118 136 1,800 420 Climbing Minneapolis Center
10:51AM 45.2047 -93.2461 North 120 138 2,300 300 Climbing Minneapolis Center
10:52AM 45.2114 -93.2992 280° West 116 133 2,500 60 Climbing Minneapolis Center
10:53AM 45.2186 -93.3467 282° West 122 140 2,500 -60 Level Minneapolis Center
10:54AM 45.2128 -93.3922 260° West 126 145 2,400 -60 Descending Minneapolis Center
10:56AM 45.1961 -93.4428 245° Southwest 119 137 2,400  Level Minneapolis Center
10:57AM 45.1886 -93.4864 256° West 124 143 2,400  Level Minneapolis Center
10:58AM 45.1781 -93.5225 247° West 129 148 2,400  Level Minneapolis Center
10:59AM 45.1492 -93.4875 139° Southeast 127 146 2,500  Climbing Minneapolis Center
11:00AM 45.1503 -93.4367 88° East 130 150 2,500 -120 Level Minneapolis Center
11:01AM 45.1478 -93.3892 94° East 123 142 2,300 -180 Descending Minneapolis Center
11:02AM 45.1475 -93.3456 91° East 114 131 2,200 -420 Descending Minneapolis Center
11:03AM 45.1503 -93.3003 85° East 99 114 1,500 -480 Descending Minneapolis Center
11:04AM 45.1464 -93.2639 99° East 93 107 1,300 -240 Descending Minneapolis Center
11:05AM 45.1456 -93.2286 92° East 92 106 1,100 -240 Descending Minneapolis Center
11:07AM 45.1449 -93.2102 90° East  Level Estimated
11:14AM 45.1449 -93.2102 90° East  Level Estimated